sensor_id;sensor_type;location;lat;lon;timestamp;P1;durP1;ratioP1;P2;durP2;ratioP2
6336;SDS011;3201;49.962;11.618;2022-11-04T00:01:16;2.17;;;1.50;;
6336;SDS011;3201;49.962;11.618;2022-11-04T00:03:42;1.17;;;1.07;;
6336;SDS011;3201;49.962;11.618;2022-11-04T00:06:07;2.20;;;1.10;;
6336;SDS011;3201;49.962;11.618;2022-11-04T00:08:33;1.47;;;1.10;;
6336;SDS011;3201;49.962;11.618;2022-11-04T00:10:59;2.20;;;1.20;;
6336;SDS011;3201;49.962;11.618;2022-11-04T00:13:45;1.50;;;1.40;;
6336;SDS011;3201;49.962;11.618;2022-11-04T00:16:11;3.10;;;1.20;;
6336;SDS011;3201;49.962;11.618;2022-11-04T00:18:58;2.70;;;1.37;;
6336;SDS011;3201;49.962;11.618;2022-11-04T00:21:24;1.93;;;1.57;;
6336;SDS011;3201;49.962;11.618;2022-11-04T00:24:10;1.53;;;1.43;;
6336;SDS011;3201;49.962;11.618;2022-11-04T00:26:56;1.73;;;1.30;;
6336;SDS011;3201;49.962;11.618;2022-11-04T00:29:42;2.60;;;1.80;;
6336;SDS011;3201;49.962;11.618;2022-11-04T00:32:08;1.20;;;1.10;;
6336;SDS011;3201;49.962;11.618;2022-11-04T00:34:54;1.40;;;1.30;;
6336;SDS011;3201;49.962;11.618;2022-11-04T00:37:19;1.33;;;1.23;;
6336;SDS011;3201;49.962;11.618;2022-11-04T00:39:45;3.23;;;1.37;;
6336;SDS011;3201;49.962;11.618;2022-11-04T00:42:10;1.37;;;1.27;;
6336;SDS011;3201;49.962;11.618;2022-11-04T00:44:35;1.10;;;1.00;;
6336;SDS011;3201;49.962;11.618;2022-11-04T00:47:01;2.87;;;1.20;;
6336;SDS011;3201;49.962;11.618;2022-11-04T00:49:26;1.70;;;1.23;;
6336;SDS011;3201;49.962;11.618;2022-11-04T00:51:51;1.60;;;1.20;;
6336;SDS011;3201;49.962;11.618;2022-11-04T00:54:17;2.13;;;1.43;;
6336;SDS011;3201;49.962;11.618;2022-11-04T00:56:42;2.53;;;1.70;;
6336;SDS011;3201;49.962;11.618;2022-11-04T00:59:07;1.70;;;1.20;;
6336;SDS011;3201;49.962;11.618;2022-11-04T01:01:33;2.47;;;1.30;;
6336;SDS011;3201;49.962;11.618;2022-11-04T01:03:58;4.80;;;1.20;;
6336;SDS011;3201;49.962;11.618;2022-11-04T01:06:24;1.40;;;1.30;;
6336;SDS011;3201;49.962;11.618;2022-11-04T01:08:54;1.13;;;1.03;;
6336;SDS011;3201;49.962;11.618;2022-11-04T01:11:21;6.23;;;1.33;;
6336;SDS011;3201;49.962;11.618;2022-11-04T01:13:48;1.77;;;1.40;;
6336;SDS011;3201;49.962;11.618;2022-11-04T01:16:14;1.83;;;1.50;;
6336;SDS011;3201;49.962;11.618;2022-11-04T01:18:39;2.50;;;1.30;;
6336;SDS011;3201;49.962;11.618;2022-11-04T01:21:06;1.47;;;1.20;;
6336;SDS011;3201;49.962;11.618;2022-11-04T01:23:33;1.20;;;0.93;;
6336;SDS011;3201;49.962;11.618;2022-11-04T01:25:59;1.20;;;1.10;;
6336;SDS011;3201;49.962;11.618;2022-11-04T01:28:24;1.53;;;1.13;;
6336;SDS011;3201;49.962;11.618;2022-11-04T01:30:50;1.90;;;1.30;;
6336;SDS011;3201;49.962;11.618;2022-11-04T01:33:15;1.80;;;1.50;;
6336;SDS011;3201;49.962;11.618;2022-11-04T01:35:41;3.07;;;1.17;;
6336;SDS011;3201;49.962;11.618;2022-11-04T01:38:06;1.60;;;1.40;;
6336;SDS011;3201;49.962;11.618;2022-11-04T01:40:35;1.33;;;1.23;;
6336;SDS011;3201;49.962;11.618;2022-11-04T01:43:02;2.60;;;1.93;;
6336;SDS011;3201;49.962;11.618;2022-11-04T01:45:27;1.13;;;1.03;;
6336;SDS011;3201;49.962;11.618;2022-11-04T01:47:57;1.30;;;1.20;;
6336;SDS011;3201;49.962;11.618;2022-11-04T01:50:27;1.27;;;1.17;;
6336;SDS011;3201;49.962;11.618;2022-11-04T01:52:56;1.43;;;1.10;;
6336;SDS011;3201;49.962;11.618;2022-11-04T01:55:28;1.40;;;1.30;;
6336;SDS011;3201;49.962;11.618;2022-11-04T01:58:00;1.53;;;1.27;;
6336;SDS011;3201;49.962;11.618;2022-11-04T02:00:28;1.57;;;1.47;;
6336;SDS011;3201;49.962;11.618;2022-11-04T02:05:25;1.57;;;0.90;;
6336;SDS011;3201;49.962;11.618;2022-11-04T02:07:53;1.63;;;1.50;;
6336;SDS011;3201;49.962;11.618;2022-11-04T02:10:21;1.30;;;1.10;;
6336;SDS011;3201;49.962;11.618;2022-11-04T02:12:49;1.27;;;1.10;;
6336;SDS011;3201;49.962;11.618;2022-11-04T02:15:16;1.40;;;1.30;;
6336;SDS011;3201;49.962;11.618;2022-11-04T02:20:28;2.03;;;1.40;;
6336;SDS011;3201;49.962;11.618;2022-11-04T02:34:31;1.87;;;1.57;;
6336;SDS011;3201;49.962;11.618;2022-11-04T02:37:07;1.50;;;1.33;;
6336;SDS011;3201;49.962;11.618;2022-11-04T02:39:57;2.43;;;1.33;;
6336;SDS011;3201;49.962;11.618;2022-11-04T02:45:23;2.47;;;1.23;;
6336;SDS011;3201;49.962;11.618;2022-11-04T02:47:53;1.83;;;1.57;;
6336;SDS011;3201;49.962;11.618;2022-11-04T02:50:31;1.63;;;1.13;;
6336;SDS011;3201;49.962;11.618;2022-11-04T02:53:03;1.60;;;1.27;;
6336;SDS011;3201;49.962;11.618;2022-11-04T02:55:35;2.10;;;1.90;;
6336;SDS011;3201;49.962;11.618;2022-11-04T02:58:04;1.60;;;1.27;;
6336;SDS011;3201;49.962;11.618;2022-11-04T03:00:32;6.00;;;1.80;;
6336;SDS011;3201;49.962;11.618;2022-11-04T03:02:59;2.27;;;1.70;;
6336;SDS011;3201;49.962;11.618;2022-11-04T03:05:29;1.10;;;0.93;;
6336;SDS011;3201;49.962;11.618;2022-11-04T03:07:59;1.40;;;1.30;;
6336;SDS011;3201;49.962;11.618;2022-11-04T03:10:30;1.33;;;1.23;;
6336;SDS011;3201;49.962;11.618;2022-11-04T03:13:09;1.20;;;1.03;;
6336;SDS011;3201;49.962;11.618;2022-11-04T03:15:37;1.53;;;1.43;;
6336;SDS011;3201;49.962;11.618;2022-11-04T03:20:51;2.43;;;1.47;;
6336;SDS011;3201;49.962;11.618;2022-11-04T03:23:21;1.80;;;1.53;;
6336;SDS011;3201;49.962;11.618;2022-11-04T03:25:46;1.07;;;0.97;;
6336;SDS011;3201;49.962;11.618;2022-11-04T03:30:47;1.30;;;1.07;;
6336;SDS011;3201;49.962;11.618;2022-11-04T03:33:18;1.73;;;1.30;;
6336;SDS011;3201;49.962;11.618;2022-11-04T03:35:48;1.60;;;1.50;;
6336;SDS011;3201;49.962;11.618;2022-11-04T03:38:13;1.33;;;1.17;;
6336;SDS011;3201;49.962;11.618;2022-11-04T03:40:38;1.83;;;1.50;;
6336;SDS011;3201;49.962;11.618;2022-11-04T03:43:08;1.33;;;1.00;;
6336;SDS011;3201;49.962;11.618;2022-11-04T03:45:36;2.20;;;1.20;;
6336;SDS011;3201;49.962;11.618;2022-11-04T03:48:01;1.53;;;1.40;;
6336;SDS011;3201;49.962;11.618;2022-11-04T03:50:28;1.50;;;1.17;;
6336;SDS011;3201;49.962;11.618;2022-11-04T03:52:55;1.83;;;1.60;;
6336;SDS011;3201;49.962;11.618;2022-11-04T03:55:28;1.67;;;1.40;;
6336;SDS011;3201;49.962;11.618;2022-11-04T03:58:03;1.63;;;1.37;;
6336;SDS011;3201;49.962;11.618;2022-11-04T04:00:35;3.30;;;1.13;;
6336;SDS011;3201;49.962;11.618;2022-11-04T04:03:06;5.17;;;1.30;;
6336;SDS011;3201;49.962;11.618;2022-11-04T04:05:41;1.20;;;1.10;;
6336;SDS011;3201;49.962;11.618;2022-11-04T04:08:14;1.37;;;1.20;;
6336;SDS011;3201;49.962;11.618;2022-11-04T04:10:51;1.50;;;1.40;;
6336;SDS011;3201;49.962;11.618;2022-11-04T04:16:46;0.87;;;0.87;;
6336;SDS011;3201;49.962;11.618;2022-11-04T04:19:17;2.17;;;1.50;;
6336;SDS011;3201;49.962;11.618;2022-11-04T04:21:45;1.40;;;1.17;;
6336;SDS011;3201;49.962;11.618;2022-11-04T04:24:14;1.30;;;1.20;;
6336;SDS011;3201;49.962;11.618;2022-11-04T04:27:02;3.23;;;1.10;;
6336;SDS011;3201;49.962;11.618;2022-11-04T04:29:47;0.90;;;0.83;;
6336;SDS011;3201;49.962;11.618;2022-11-04T04:32:14;1.20;;;1.10;;
6336;SDS011;3201;49.962;11.618;2022-11-04T04:34:40;1.50;;;1.20;;
6336;SDS011;3201;49.962;11.618;2022-11-04T04:37:08;1.10;;;1.00;;
6336;SDS011;3201;49.962;11.618;2022-11-04T04:39:39;1.23;;;1.13;;
6336;SDS011;3201;49.962;11.618;2022-11-04T04:42:30;0.93;;;0.83;;
6336;SDS011;3201;49.962;11.618;2022-11-04T04:45:19;1.57;;;1.20;;
6336;SDS011;3201;49.962;11.618;2022-11-04T04:47:47;1.20;;;1.10;;
6336;SDS011;3201;49.962;11.618;2022-11-04T04:50:13;2.13;;;1.03;;
6336;SDS011;3201;49.962;11.618;2022-11-04T04:52:41;1.23;;;1.10;;
6336;SDS011;3201;49.962;11.618;2022-11-04T04:55:10;1.53;;;1.00;;
6336;SDS011;3201;49.962;11.618;2022-11-04T04:57:36;1.43;;;1.00;;
6336;SDS011;3201;49.962;11.618;2022-11-04T05:00:03;1.77;;;0.80;;
6336;SDS011;3201;49.962;11.618;2022-11-04T05:02:29;2.27;;;1.20;;
6336;SDS011;3201;49.962;11.618;2022-11-04T05:04:55;1.50;;;1.00;;
6336;SDS011;3201;49.962;11.618;2022-11-04T05:07:20;1.90;;;1.37;;
6336;SDS011;3201;49.962;11.618;2022-11-04T05:09:46;0.93;;;0.90;;
6336;SDS011;3201;49.962;11.618;2022-11-04T05:12:11;1.60;;;1.13;;
6336;SDS011;3201;49.962;11.618;2022-11-04T05:14:37;1.47;;;0.80;;
6336;SDS011;3201;49.962;11.618;2022-11-04T05:17:02;1.00;;;0.83;;
6336;SDS011;3201;49.962;11.618;2022-11-04T05:19:28;1.10;;;0.80;;
6336;SDS011;3201;49.962;11.618;2022-11-04T05:21:53;0.80;;;0.80;;
6336;SDS011;3201;49.962;11.618;2022-11-04T05:24:18;1.10;;;1.00;;
6336;SDS011;3201;49.962;11.618;2022-11-04T05:26:44;1.33;;;1.00;;
6336;SDS011;3201;49.962;11.618;2022-11-04T05:29:09;1.40;;;0.93;;
6336;SDS011;3201;49.962;11.618;2022-11-04T05:31:36;1.70;;;1.23;;
6336;SDS011;3201;49.962;11.618;2022-11-04T05:34:02;1.10;;;0.97;;
6336;SDS011;3201;49.962;11.618;2022-11-04T05:36:28;0.90;;;0.80;;
6336;SDS011;3201;49.962;11.618;2022-11-04T05:38:53;1.20;;;0.90;;
6336;SDS011;3201;49.962;11.618;2022-11-04T05:41:19;1.10;;;0.80;;
6336;SDS011;3201;49.962;11.618;2022-11-04T05:43:53;0.80;;;0.70;;
6336;SDS011;3201;49.962;11.618;2022-11-04T05:46:19;1.03;;;0.93;;
6336;SDS011;3201;49.962;11.618;2022-11-04T05:48:44;1.30;;;1.20;;
6336;SDS011;3201;49.962;11.618;2022-11-04T05:51:13;1.30;;;0.90;;
6336;SDS011;3201;49.962;11.618;2022-11-04T05:53:41;1.30;;;0.90;;
6336;SDS011;3201;49.962;11.618;2022-11-04T05:56:07;1.97;;;0.70;;
6336;SDS011;3201;49.962;11.618;2022-11-04T05:58:32;1.23;;;1.00;;
6336;SDS011;3201;49.962;11.618;2022-11-04T06:01:58;1.00;;;0.90;;
6336;SDS011;3201;49.962;11.618;2022-11-04T06:03:49;1.00;;;0.90;;
6336;SDS011;3201;49.962;11.618;2022-11-04T06:06:15;1.37;;;1.03;;
6336;SDS011;3201;49.962;11.618;2022-11-04T06:08:40;1.10;;;0.80;;
6336;SDS011;3201;49.962;11.618;2022-11-04T06:11:06;1.00;;;0.90;;
6336;SDS011;3201;49.962;11.618;2022-11-04T06:13:31;1.03;;;0.83;;
6336;SDS011;3201;49.962;11.618;2022-11-04T06:15:57;1.37;;;0.90;;
6336;SDS011;3201;49.962;11.618;2022-11-04T06:18:22;0.70;;;0.70;;
6336;SDS011;3201;49.962;11.618;2022-11-04T06:20:47;1.00;;;0.77;;
6336;SDS011;3201;49.962;11.618;2022-11-04T06:23:13;1.27;;;0.93;;
6336;SDS011;3201;49.962;11.618;2022-11-04T06:25:38;0.97;;;0.90;;
6336;SDS011;3201;49.962;11.618;2022-11-04T06:28:03;0.80;;;0.70;;
6336;SDS011;3201;49.962;11.618;2022-11-04T06:30:29;1.07;;;0.97;;
6336;SDS011;3201;49.962;11.618;2022-11-04T06:32:54;1.27;;;1.00;;
6336;SDS011;3201;49.962;11.618;2022-11-04T06:35:19;0.80;;;0.77;;
6336;SDS011;3201;49.962;11.618;2022-11-04T06:37:45;0.80;;;0.80;;
6336;SDS011;3201;49.962;11.618;2022-11-04T06:40:10;1.43;;;1.00;;
6336;SDS011;3201;49.962;11.618;2022-11-04T06:42:36;1.07;;;0.97;;
6336;SDS011;3201;49.962;11.618;2022-11-04T06:45:01;0.80;;;0.70;;
6336;SDS011;3201;49.962;11.618;2022-11-04T06:47:27;1.00;;;0.80;;
6336;SDS011;3201;49.962;11.618;2022-11-04T06:49:52;1.57;;;1.20;;
6336;SDS011;3201;49.962;11.618;2022-11-04T06:52:18;2.03;;;0.90;;
6336;SDS011;3201;49.962;11.618;2022-11-04T06:54:43;1.17;;;0.77;;
6336;SDS011;3201;49.962;11.618;2022-11-04T06:57:09;1.03;;;0.93;;
6336;SDS011;3201;49.962;11.618;2022-11-04T06:59:36;0.80;;;0.80;;
6336;SDS011;3201;49.962;11.618;2022-11-04T07:02:01;0.90;;;0.90;;
6336;SDS011;3201;49.962;11.618;2022-11-04T07:04:26;0.93;;;0.83;;
6336;SDS011;3201;49.962;11.618;2022-11-04T07:06:52;1.23;;;0.83;;
6336;SDS011;3201;49.962;11.618;2022-11-04T07:09:17;1.30;;;1.00;;
6336;SDS011;3201;49.962;11.618;2022-11-04T07:11:43;1.57;;;0.80;;
6336;SDS011;3201;49.962;11.618;2022-11-04T07:14:09;1.00;;;0.90;;
6336;SDS011;3201;49.962;11.618;2022-11-04T07:16:35;0.80;;;0.60;;
6336;SDS011;3201;49.962;11.618;2022-11-04T07:19:00;0.73;;;0.73;;
6336;SDS011;3201;49.962;11.618;2022-11-04T07:21:25;0.70;;;0.70;;
6336;SDS011;3201;49.962;11.618;2022-11-04T07:23:51;1.40;;;0.70;;
6336;SDS011;3201;49.962;11.618;2022-11-04T07:26:16;1.23;;;0.90;;
6336;SDS011;3201;49.962;11.618;2022-11-04T07:28:42;1.13;;;1.00;;
6336;SDS011;3201;49.962;11.618;2022-11-04T07:31:08;1.03;;;0.80;;
6336;SDS011;3201;49.962;11.618;2022-11-04T07:33:35;0.97;;;0.87;;
6336;SDS011;3201;49.962;11.618;2022-11-04T07:36:04;1.67;;;1.00;;
6336;SDS011;3201;49.962;11.618;2022-11-04T07:38:31;1.67;;;0.90;;
6336;SDS011;3201;49.962;11.618;2022-11-04T07:40:56;0.73;;;0.63;;
6336;SDS011;3201;49.962;11.618;2022-11-04T07:43:22;2.93;;;1.10;;
6336;SDS011;3201;49.962;11.618;2022-11-04T07:45:57;1.30;;;1.10;;
6336;SDS011;3201;49.962;11.618;2022-11-04T07:48:27;1.27;;;0.90;;
6336;SDS011;3201;49.962;11.618;2022-11-04T07:50:55;0.80;;;0.63;;
6336;SDS011;3201;49.962;11.618;2022-11-04T07:53:22;0.80;;;0.80;;
6336;SDS011;3201;49.962;11.618;2022-11-04T07:55:47;1.00;;;0.80;;
6336;SDS011;3201;49.962;11.618;2022-11-04T07:58:15;1.33;;;0.87;;
6336;SDS011;3201;49.962;11.618;2022-11-04T08:00:42;0.97;;;0.87;;
6336;SDS011;3201;49.962;11.618;2022-11-04T08:03:07;0.73;;;0.70;;
6336;SDS011;3201;49.962;11.618;2022-11-04T08:05:33;1.23;;;0.80;;
6336;SDS011;3201;49.962;11.618;2022-11-04T08:07:59;0.90;;;0.80;;
6336;SDS011;3201;49.962;11.618;2022-11-04T08:10:24;1.13;;;1.03;;
6336;SDS011;3201;49.962;11.618;2022-11-04T08:12:50;1.10;;;0.93;;
6336;SDS011;3201;49.962;11.618;2022-11-04T08:15:16;0.90;;;0.90;;
6336;SDS011;3201;49.962;11.618;2022-11-04T08:17:41;1.23;;;0.90;;
6336;SDS011;3201;49.962;11.618;2022-11-04T08:20:07;0.70;;;0.60;;
6336;SDS011;3201;49.962;11.618;2022-11-04T08:22:33;1.00;;;0.80;;
6336;SDS011;3201;49.962;11.618;2022-11-04T08:24:59;1.10;;;0.80;;
6336;SDS011;3201;49.962;11.618;2022-11-04T08:27:24;1.13;;;0.87;;
6336;SDS011;3201;49.962;11.618;2022-11-04T08:29:50;1.57;;;1.00;;
6336;SDS011;3201;49.962;11.618;2022-11-04T08:32:15;0.70;;;0.67;;
6336;SDS011;3201;49.962;11.618;2022-11-04T08:34:41;0.90;;;0.87;;
6336;SDS011;3201;49.962;11.618;2022-11-04T08:37:07;1.17;;;1.03;;
6336;SDS011;3201;49.962;11.618;2022-11-04T08:39:32;1.20;;;0.83;;
6336;SDS011;3201;49.962;11.618;2022-11-04T08:41:57;1.33;;;0.60;;
6336;SDS011;3201;49.962;11.618;2022-11-04T08:44:23;0.70;;;0.70;;
6336;SDS011;3201;49.962;11.618;2022-11-04T08:46:48;1.50;;;0.97;;
6336;SDS011;3201;49.962;11.618;2022-11-04T08:49:13;1.03;;;0.87;;
6336;SDS011;3201;49.962;11.618;2022-11-04T08:51:40;0.70;;;0.60;;
6336;SDS011;3201;49.962;11.618;2022-11-04T08:54:07;0.80;;;0.70;;
6336;SDS011;3201;49.962;11.618;2022-11-04T08:56:34;2.00;;;0.80;;
6336;SDS011;3201;49.962;11.618;2022-11-04T08:59:01;2.03;;;1.03;;
6336;SDS011;3201;49.962;11.618;2022-11-04T09:01:28;0.80;;;0.60;;
6336;SDS011;3201;49.962;11.618;2022-11-04T09:03:54;0.80;;;0.80;;
6336;SDS011;3201;49.962;11.618;2022-11-04T09:06:21;0.73;;;0.70;;
6336;SDS011;3201;49.962;11.618;2022-11-04T09:08:48;1.07;;;0.70;;
6336;SDS011;3201;49.962;11.618;2022-11-04T09:11:14;1.00;;;0.70;;
6336;SDS011;3201;49.962;11.618;2022-11-04T09:13:40;1.03;;;0.93;;
6336;SDS011;3201;49.962;11.618;2022-11-04T09:16:07;0.60;;;0.60;;
6336;SDS011;3201;49.962;11.618;2022-11-04T09:18:33;0.80;;;0.80;;
6336;SDS011;3201;49.962;11.618;2022-11-04T09:20:59;2.10;;;0.70;;
6336;SDS011;3201;49.962;11.618;2022-11-04T09:23:26;0.90;;;0.73;;
6336;SDS011;3201;49.962;11.618;2022-11-04T09:25:52;1.63;;;0.80;;
6336;SDS011;3201;49.962;11.618;2022-11-04T09:28:17;1.00;;;0.80;;
6336;SDS011;3201;49.962;11.618;2022-11-04T09:30:43;0.97;;;0.87;;
6336;SDS011;3201;49.962;11.618;2022-11-04T09:33:08;0.60;;;0.50;;
6336;SDS011;3201;49.962;11.618;2022-11-04T09:35:34;0.70;;;0.60;;
6336;SDS011;3201;49.962;11.618;2022-11-04T09:37:59;1.17;;;0.60;;
6336;SDS011;3201;49.962;11.618;2022-11-04T09:40:26;1.63;;;1.10;;
6336;SDS011;3201;49.962;11.618;2022-11-04T09:45:23;0.80;;;0.50;;
6336;SDS011;3201;49.962;11.618;2022-11-04T09:47:52;0.80;;;0.63;;
6336;SDS011;3201;49.962;11.618;2022-11-04T09:50:24;0.80;;;0.67;;
6336;SDS011;3201;49.962;11.618;2022-11-04T09:52:53;1.07;;;0.97;;
6336;SDS011;3201;49.962;11.618;2022-11-04T09:55:25;0.87;;;0.70;;
6336;SDS011;3201;49.962;11.618;2022-11-04T09:57:55;1.97;;;0.70;;
6336;SDS011;3201;49.962;11.618;2022-11-04T10:00:23;1.80;;;0.70;;
6336;SDS011;3201;49.962;11.618;2022-11-04T10:27:21;1.43;;;0.80;;
6336;SDS011;3201;49.962;11.618;2022-11-04T10:30:22;0.90;;;0.50;;
6336;SDS011;3201;49.962;11.618;2022-11-04T10:32:47;0.90;;;0.60;;
6336;SDS011;3201;49.962;11.618;2022-11-04T10:35:52;0.83;;;0.70;;
6336;SDS011;3201;49.962;11.618;2022-11-04T10:40:41;2.43;;;0.80;;
6336;SDS011;3201;49.962;11.618;2022-11-04T10:43:12;0.90;;;0.70;;
6336;SDS011;3201;49.962;11.618;2022-11-04T10:48:19;3.13;;;0.87;;
6336;SDS011;3201;49.962;11.618;2022-11-04T10:50:51;0.90;;;0.80;;
6336;SDS011;3201;49.962;11.618;2022-11-04T10:53:19;1.00;;;0.87;;
6336;SDS011;3201;49.962;11.618;2022-11-04T10:58:34;1.53;;;0.90;;
6336;SDS011;3201;49.962;11.618;2022-11-04T11:01:21;1.03;;;0.73;;
6336;SDS011;3201;49.962;11.618;2022-11-04T11:03:52;1.70;;;0.83;;
6336;SDS011;3201;49.962;11.618;2022-11-04T11:06:23;1.50;;;0.60;;
6336;SDS011;3201;49.962;11.618;2022-11-04T11:08:50;1.77;;;0.90;;
6336;SDS011;3201;49.962;11.618;2022-11-04T11:11:20;1.37;;;0.80;;
6336;SDS011;3201;49.962;11.618;2022-11-04T11:14:13;1.87;;;0.90;;
6336;SDS011;3201;49.962;11.618;2022-11-04T11:16:41;0.97;;;0.87;;
6336;SDS011;3201;49.962;11.618;2022-11-04T11:19:12;0.87;;;0.63;;
6336;SDS011;3201;49.962;11.618;2022-11-04T11:21:41;0.97;;;0.77;;
6336;SDS011;3201;49.962;11.618;2022-11-04T11:24:14;1.93;;;0.83;;
6336;SDS011;3201;49.962;11.618;2022-11-04T11:26:45;0.80;;;0.50;;
6336;SDS011;3201;49.962;11.618;2022-11-04T11:29:22;0.80;;;0.77;;
6336;SDS011;3201;49.962;11.618;2022-11-04T11:31:50;0.90;;;0.80;;
6336;SDS011;3201;49.962;11.618;2022-11-04T11:34:18;3.90;;;0.97;;
6336;SDS011;3201;49.962;11.618;2022-11-04T11:36:50;1.27;;;0.87;;
6336;SDS011;3201;49.962;11.618;2022-11-04T11:39:18;0.80;;;0.60;;
6336;SDS011;3201;49.962;11.618;2022-11-04T11:41:49;0.70;;;0.50;;
6336;SDS011;3201;49.962;11.618;2022-11-04T11:46:51;0.93;;;0.70;;
6336;SDS011;3201;49.962;11.618;2022-11-04T11:49:23;0.73;;;0.53;;
6336;SDS011;3201;49.962;11.618;2022-11-04T11:51:53;2.10;;;0.70;;
6336;SDS011;3201;49.962;11.618;2022-11-04T11:54:21;2.27;;;0.70;;
6336;SDS011;3201;49.962;11.618;2022-11-04T11:56:57;0.77;;;0.70;;
6336;SDS011;3201;49.962;11.618;2022-11-04T12:02:03;1.47;;;0.80;;
6336;SDS011;3201;49.962;11.618;2022-11-04T12:04:45;0.77;;;0.53;;
6336;SDS011;3201;49.962;11.618;2022-11-04T12:07:16;0.97;;;0.90;;
6336;SDS011;3201;49.962;11.618;2022-11-04T12:10:09;2.30;;;0.70;;
6336;SDS011;3201;49.962;11.618;2022-11-04T12:21:32;2.03;;;0.90;;
6336;SDS011;3201;49.962;11.618;2022-11-04T12:23:48;2.10;;;0.90;;
6336;SDS011;3201;49.962;11.618;2022-11-04T12:31:21;1.00;;;0.83;;
6336;SDS011;3201;49.962;11.618;2022-11-04T12:42:34;1.37;;;0.93;;
6336;SDS011;3201;49.962;11.618;2022-11-04T12:45:09;1.63;;;0.80;;
6336;SDS011;3201;49.962;11.618;2022-11-04T12:47:42;2.57;;;0.80;;
6336;SDS011;3201;49.962;11.618;2022-11-04T12:58:22;1.13;;;0.90;;
6336;SDS011;3201;49.962;11.618;2022-11-04T13:01:58;2.93;;;0.90;;
6336;SDS011;3201;49.962;11.618;2022-11-04T13:03:51;2.80;;;1.00;;
6336;SDS011;3201;49.962;11.618;2022-11-04T13:06:45;4.17;;;0.87;;
6336;SDS011;3201;49.962;11.618;2022-11-04T13:09:14;1.87;;;0.77;;
6336;SDS011;3201;49.962;11.618;2022-11-04T13:14:17;1.23;;;0.70;;
6336;SDS011;3201;49.962;11.618;2022-11-04T13:16:50;2.40;;;1.00;;
6336;SDS011;3201;49.962;11.618;2022-11-04T13:21:55;0.90;;;0.70;;
6336;SDS011;3201;49.962;11.618;2022-11-04T13:24:24;2.90;;;0.80;;
6336;SDS011;3201;49.962;11.618;2022-11-04T13:26:54;1.10;;;0.93;;
6336;SDS011;3201;49.962;11.618;2022-11-04T13:29:22;2.00;;;0.70;;
6336;SDS011;3201;49.962;11.618;2022-11-04T13:32:52;1.60;;;0.60;;
6336;SDS011;3201;49.962;11.618;2022-11-04T13:37:21;0.83;;;0.63;;
6336;SDS011;3201;49.962;11.618;2022-11-04T13:39:51;0.70;;;0.50;;
6336;SDS011;3201;49.962;11.618;2022-11-04T13:43:21;1.93;;;0.80;;
6336;SDS011;3201;49.962;11.618;2022-11-04T13:45:47;1.47;;;1.00;;
6336;SDS011;3201;49.962;11.618;2022-11-04T13:48:16;2.10;;;0.80;;
6336;SDS011;3201;49.962;11.618;2022-11-04T13:53:44;1.67;;;1.17;;
6336;SDS011;3201;49.962;11.618;2022-11-04T13:56:35;1.47;;;0.80;;
6336;SDS011;3201;49.962;11.618;2022-11-04T13:58:59;1.53;;;1.00;;
6336;SDS011;3201;49.962;11.618;2022-11-04T14:01:29;1.50;;;1.10;;
6336;SDS011;3201;49.962;11.618;2022-11-04T14:09:23;2.93;;;1.20;;
6336;SDS011;3201;49.962;11.618;2022-11-04T14:12:30;2.83;;;1.37;;
6336;SDS011;3201;49.962;11.618;2022-11-04T14:15:02;1.47;;;0.87;;
6336;SDS011;3201;49.962;11.618;2022-11-04T14:22:47;4.60;;;0.83;;
6336;SDS011;3201;49.962;11.618;2022-11-04T14:27:47;1.63;;;0.80;;
6336;SDS011;3201;49.962;11.618;2022-11-04T14:33:19;1.07;;;0.90;;
6336;SDS011;3201;49.962;11.618;2022-11-04T14:37:16;1.20;;;0.70;;
6336;SDS011;3201;49.962;11.618;2022-11-04T14:41:50;4.10;;;1.00;;
6336;SDS011;3201;49.962;11.618;2022-11-04T14:44:27;2.50;;;0.90;;
6336;SDS011;3201;49.962;11.618;2022-11-04T14:46:55;3.43;;;1.20;;
6336;SDS011;3201;49.962;11.618;2022-11-04T14:52:15;4.10;;;1.23;;
6336;SDS011;3201;49.962;11.618;2022-11-04T14:54:46;1.90;;;1.10;;
6336;SDS011;3201;49.962;11.618;2022-11-04T14:57:12;3.33;;;1.33;;
6336;SDS011;3201;49.962;11.618;2022-11-04T14:59:40;1.90;;;1.07;;
6336;SDS011;3201;49.962;11.618;2022-11-04T15:02:10;4.40;;;1.57;;
6336;SDS011;3201;49.962;11.618;2022-11-04T15:04:44;5.50;;;1.80;;
6336;SDS011;3201;49.962;11.618;2022-11-04T15:07:21;5.33;;;1.30;;
6336;SDS011;3201;49.962;11.618;2022-11-04T15:09:49;8.47;;;1.33;;
6336;SDS011;3201;49.962;11.618;2022-11-04T15:12:16;3.37;;;1.20;;
6336;SDS011;3201;49.962;11.618;2022-11-04T15:15:19;3.20;;;1.23;;
6336;SDS011;3201;49.962;11.618;2022-11-04T15:17:49;2.13;;;1.33;;
6336;SDS011;3201;49.962;11.618;2022-11-04T15:20:22;2.53;;;0.90;;
6336;SDS011;3201;49.962;11.618;2022-11-04T15:22:49;2.60;;;1.10;;
6336;SDS011;3201;49.962;11.618;2022-11-04T15:25:15;4.13;;;1.20;;
6336;SDS011;3201;49.962;11.618;2022-11-04T15:27:40;2.77;;;1.10;;
6336;SDS011;3201;49.962;11.618;2022-11-04T15:30:15;2.20;;;0.90;;
6336;SDS011;3201;49.962;11.618;2022-11-04T15:32:52;2.13;;;1.30;;
6336;SDS011;3201;49.962;11.618;2022-11-04T15:35:22;5.63;;;1.70;;
6336;SDS011;3201;49.962;11.618;2022-11-04T15:37:49;5.33;;;1.37;;
6336;SDS011;3201;49.962;11.618;2022-11-04T15:40:16;4.83;;;1.43;;
6336;SDS011;3201;49.962;11.618;2022-11-04T15:42:42;4.67;;;1.17;;
6336;SDS011;3201;49.962;11.618;2022-11-04T15:45:25;4.07;;;1.53;;
6336;SDS011;3201;49.962;11.618;2022-11-04T15:49:04;7.57;;;1.17;;
6336;SDS011;3201;49.962;11.618;2022-11-04T15:51:47;5.37;;;1.20;;
6336;SDS011;3201;49.962;11.618;2022-11-04T15:53:45;3.20;;;1.10;;
6336;SDS011;3201;49.962;11.618;2022-11-04T15:56:14;4.70;;;1.40;;
6336;SDS011;3201;49.962;11.618;2022-11-04T15:58:41;13.90;;;1.87;;
6336;SDS011;3201;49.962;11.618;2022-11-04T16:01:08;7.00;;;1.30;;
6336;SDS011;3201;49.962;11.618;2022-11-04T16:03:37;7.57;;;1.97;;
6336;SDS011;3201;49.962;11.618;2022-11-04T16:06:04;6.30;;;1.50;;
6336;SDS011;3201;49.962;11.618;2022-11-04T16:08:31;18.53;;;1.97;;
6336;SDS011;3201;49.962;11.618;2022-11-04T16:11:06;6.00;;;1.27;;
6336;SDS011;3201;49.962;11.618;2022-11-04T16:13:33;16.63;;;2.03;;
6336;SDS011;3201;49.962;11.618;2022-11-04T16:18:37;5.00;;;1.70;;
6336;SDS011;3201;49.962;11.618;2022-11-04T16:21:05;8.97;;;1.30;;
6336;SDS011;3201;49.962;11.618;2022-11-04T16:23:35;7.80;;;1.83;;
6336;SDS011;3201;49.962;11.618;2022-11-04T16:26:07;8.03;;;1.33;;
6336;SDS011;3201;49.962;11.618;2022-11-04T16:28:34;6.60;;;1.97;;
6336;SDS011;3201;49.962;11.618;2022-11-04T16:31:04;18.80;;;2.00;;
6336;SDS011;3201;49.962;11.618;2022-11-04T16:33:31;7.07;;;1.57;;
6336;SDS011;3201;49.962;11.618;2022-11-04T16:35:56;6.60;;;1.73;;
6336;SDS011;3201;49.962;11.618;2022-11-04T16:38:22;5.17;;;1.00;;
6336;SDS011;3201;49.962;11.618;2022-11-04T16:40:47;6.67;;;1.23;;
6336;SDS011;3201;49.962;11.618;2022-11-04T16:43:15;7.53;;;1.63;;
6336;SDS011;3201;49.962;11.618;2022-11-04T16:45:43;8.03;;;1.70;;
6336;SDS011;3201;49.962;11.618;2022-11-04T16:48:13;4.50;;;1.53;;
6336;SDS011;3201;49.962;11.618;2022-11-04T16:50:40;6.23;;;1.60;;
6336;SDS011;3201;49.962;11.618;2022-11-04T16:53:06;3.53;;;1.10;;
6336;SDS011;3201;49.962;11.618;2022-11-04T16:55:31;10.80;;;1.80;;
6336;SDS011;3201;49.962;11.618;2022-11-04T16:57:57;8.00;;;1.87;;
6336;SDS011;3201;49.962;11.618;2022-11-04T17:00:25;5.63;;;1.67;;
6336;SDS011;3201;49.962;11.618;2022-11-04T17:02:52;8.27;;;1.67;;
6336;SDS011;3201;49.962;11.618;2022-11-04T17:05:17;3.70;;;1.40;;
6336;SDS011;3201;49.962;11.618;2022-11-04T17:07:43;4.53;;;1.50;;
6336;SDS011;3201;49.962;11.618;2022-11-04T17:10:18;5.83;;;1.20;;
6336;SDS011;3201;49.962;11.618;2022-11-04T17:12:45;7.60;;;1.73;;
6336;SDS011;3201;49.962;11.618;2022-11-04T17:15:11;7.83;;;1.50;;
6336;SDS011;3201;49.962;11.618;2022-11-04T17:17:37;7.73;;;1.40;;
6336;SDS011;3201;49.962;11.618;2022-11-04T17:20:03;2.30;;;1.17;;
6336;SDS011;3201;49.962;11.618;2022-11-04T17:22:30;3.57;;;1.17;;
6336;SDS011;3201;49.962;11.618;2022-11-04T17:24:56;5.00;;;1.80;;
6336;SDS011;3201;49.962;11.618;2022-11-04T17:27:21;2.83;;;1.63;;
6336;SDS011;3201;49.962;11.618;2022-11-04T17:29:47;3.80;;;1.70;;